sensor_id;sensor_type;location;lat;lon;timestamp;pressure;altitude;pressure_sealevel;temperature;humidity
42847;BME280;28495;49.916;14.536;2023-03-25T00:01:28;96025.75;;;10.95;60.98
42847;BME280;28495;49.916;14.536;2023-03-25T00:06:55;96027.53;;;10.87;61.04
42847;BME280;28495;49.916;14.536;2023-03-25T00:12:16;96023.94;;;10.88;61.13
42847;BME280;28495;49.916;14.536;2023-03-25T00:17:39;96020.81;;;10.84;61.31
42847;BME280;28495;49.916;14.536;2023-03-25T00:23:00;96013.94;;;10.66;60.85
42847;BME280;28495;49.916;14.536;2023-03-25T00:28:20;96017.19;;;10.68;61.21
42847;BME280;28495;49.916;14.536;2023-03-25T00:33:41;96008.09;;;10.73;61.31
42847;BME280;28495;49.916;14.536;2023-03-25T00:39:06;96013.28;;;10.64;61.24
42847;BME280;28495;49.916;14.536;2023-03-25T00:44:28;96001.72;;;10.59;61.51
42847;BME280;28495;49.916;14.536;2023-03-25T00:49:49;96007.06;;;10.57;61.37
42847;BME280;28495;49.916;14.536;2023-03-25T00:55:11;96007.56;;;10.61;61.80
42847;BME280;28495;49.916;14.536;2023-03-25T01:00:32;96010.97;;;10.53;61.67
42847;BME280;28495;49.916;14.536;2023-03-25T01:05:52;96014.22;;;10.47;61.59
42847;BME280;28495;49.916;14.536;2023-03-25T01:11:22;96010.94;;;10.45;61.52
42847;BME280;28495;49.916;14.536;2023-03-25T01:16:43;96005.44;;;10.48;61.50
42847;BME280;28495;49.916;14.536;2023-03-25T01:22:05;96012.44;;;10.56;61.66
42847;BME280;28495;49.916;14.536;2023-03-25T01:27:25;96010.16;;;10.52;61.73
42847;BME280;28495;49.916;14.536;2023-03-25T01:32:46;96005.94;;;10.60;61.83
42847;BME280;28495;49.916;14.536;2023-03-25T01:38:07;96001.69;;;10.50;61.64
42847;BME280;28495;49.916;14.536;2023-03-25T01:43:29;95999.53;;;10.46;61.34
42847;BME280;28495;49.916;14.536;2023-03-25T01:48:51;95994.16;;;10.47;61.80
42847;BME280;28495;49.916;14.536;2023-03-25T01:54:13;95994.34;;;10.54;61.94
42847;BME280;28495;49.916;14.536;2023-03-25T01:59:38;95988.63;;;10.50;61.74
42847;BME280;28495;49.916;14.536;2023-03-25T02:10:31;95976.00;;;10.29;61.96
42847;BME280;28495;49.916;14.536;2023-03-25T02:27:43;95977.19;;;10.00;62.16
42847;BME280;28495;49.916;14.536;2023-03-25T02:39:06;95965.63;;;10.03;62.54
42847;BME280;28495;49.916;14.536;2023-03-25T02:50:09;95980.22;;;9.87;62.65
42847;BME280;28495;49.916;14.536;2023-03-25T02:55:34;95961.59;;;9.74;62.72
42847;BME280;28495;49.916;14.536;2023-03-25T03:00:55;95957.84;;;9.68;62.71
42847;BME280;28495;49.916;14.536;2023-03-25T03:06:20;95941.91;;;9.71;62.78
42847;BME280;28495;49.916;14.536;2023-03-25T03:23:20;95935.00;;;9.62;62.56
42847;BME280;28495;49.916;14.536;2023-03-25T03:28:49;95935.94;;;9.53;62.60
42847;BME280;28495;49.916;14.536;2023-03-25T03:34:47;95943.56;;;9.46;62.31
42847;BME280;28495;49.916;14.536;2023-03-25T03:40:13;95946.47;;;9.43;62.25
42847;BME280;28495;49.916;14.536;2023-03-25T03:45:40;95946.97;;;9.46;62.59
42847;BME280;28495;49.916;14.536;2023-03-25T03:51:10;95957.44;;;9.55;62.34
42847;BME280;28495;49.916;14.536;2023-03-25T03:56:38;95959.88;;;9.56;62.35
42847;BME280;28495;49.916;14.536;2023-03-25T04:02:05;95971.72;;;9.51;61.93
42847;BME280;28495;49.916;14.536;2023-03-25T04:13:14;95974.53;;;9.57;62.01
42847;BME280;28495;49.916;14.536;2023-03-25T04:18:37;95971.72;;;9.51;62.27
42847;BME280;28495;49.916;14.536;2023-03-25T04:23:59;95964.22;;;9.48;62.17
42847;BME280;28495;49.916;14.536;2023-03-25T04:29:22;95958.03;;;9.49;62.27
42847;BME280;28495;49.916;14.536;2023-03-25T04:34:45;95958.41;;;9.54;62.54
42847;BME280;28495;49.916;14.536;2023-03-25T04:40:07;95957.84;;;9.42;62.20
42847;BME280;28495;49.916;14.536;2023-03-25T04:45:29;95961.16;;;9.26;62.48
42847;BME280;28495;49.916;14.536;2023-03-25T04:50:50;95963.25;;;9.22;62.73
42847;BME280;28495;49.916;14.536;2023-03-25T04:56:15;95966.81;;;9.21;63.14
42847;BME280;28495;49.916;14.536;2023-03-25T05:01:37;95968.50;;;9.30;63.43
42847;BME280;28495;49.916;14.536;2023-03-25T05:07:01;95963.00;;;9.34;62.95
42847;BME280;28495;49.916;14.536;2023-03-25T05:12:23;95977.53;;;9.18;63.10
42847;BME280;28495;49.916;14.536;2023-03-25T05:17:44;95986.22;;;9.09;63.29
42847;BME280;28495;49.916;14.536;2023-03-25T05:23:06;95992.31;;;8.99;62.98
42847;BME280;28495;49.916;14.536;2023-03-25T05:28:31;95993.59;;;8.95;63.27
42847;BME280;28495;49.916;14.536;2023-03-25T05:33:53;95998.31;;;9.00;63.37
42847;BME280;28495;49.916;14.536;2023-03-25T05:39:14;96009.53;;;9.37;63.49
42847;BME280;28495;49.916;14.536;2023-03-25T05:44:35;96008.00;;;9.26;62.83
42847;BME280;28495;49.916;14.536;2023-03-25T05:49:58;96007.09;;;9.17;62.78
42847;BME280;28495;49.916;14.536;2023-03-25T05:55:21;96010.50;;;9.18;62.69
42847;BME280;28495;49.916;14.536;2023-03-25T06:00:43;96009.75;;;9.25;62.54
42847;BME280;28495;49.916;14.536;2023-03-25T06:06:04;96022.34;;;9.12;62.53
42847;BME280;28495;49.916;14.536;2023-03-25T06:11:25;96025.91;;;9.11;62.67
42847;BME280;28495;49.916;14.536;2023-03-25T06:16:46;96020.19;;;9.07;62.02
42847;BME280;28495;49.916;14.536;2023-03-25T06:22:10;96014.53;;;9.12;61.91
42847;BME280;28495;49.916;14.536;2023-03-25T06:27:31;96019.66;;;9.22;61.83
42847;BME280;28495;49.916;14.536;2023-03-25T06:32:54;96028.34;;;9.30;61.09
42847;BME280;28495;49.916;14.536;2023-03-25T06:38:15;96038.31;;;9.35;61.09
42847;BME280;28495;49.916;14.536;2023-03-25T06:43:53;96027.97;;;9.25;60.85
42847;BME280;28495;49.916;14.536;2023-03-25T06:49:14;96037.03;;;9.39;60.99
42847;BME280;28495;49.916;14.536;2023-03-25T06:54:35;96026.22;;;9.79;61.06
42847;BME280;28495;49.916;14.536;2023-03-25T06:59:56;96040.38;;;10.02;60.49
42847;BME280;28495;49.916;14.536;2023-03-25T07:05:17;96028.16;;;10.03;60.08
42847;BME280;28495;49.916;14.536;2023-03-25T07:10:37;96041.66;;;9.98;60.20
42847;BME280;28495;49.916;14.536;2023-03-25T07:15:59;96049.94;;;9.94;60.38
42847;BME280;28495;49.916;14.536;2023-03-25T07:21:20;96033.47;;;9.93;60.76
42847;BME280;28495;49.916;14.536;2023-03-25T07:26:41;96031.59;;;9.77;60.25
42847;BME280;28495;49.916;14.536;2023-03-25T07:32:05;96045.69;;;9.66;60.33
42847;BME280;28495;49.916;14.536;2023-03-25T07:37:26;96036.53;;;9.62;60.18
42847;BME280;28495;49.916;14.536;2023-03-25T07:42:47;96036.25;;;9.65;60.67
42847;BME280;28495;49.916;14.536;2023-03-25T07:48:15;96038.63;;;9.58;60.08
42847;BME280;28495;49.916;14.536;2023-03-25T07:53:36;96045.06;;;9.46;60.26
42847;BME280;28495;49.916;14.536;2023-03-25T07:58:58;96057.16;;;9.55;61.03
42847;BME280;28495;49.916;14.536;2023-03-25T08:04:19;96066.09;;;9.53;60.52
42847;BME280;28495;49.916;14.536;2023-03-25T08:09:40;96069.75;;;9.60;60.81
42847;BME280;28495;49.916;14.536;2023-03-25T08:15:02;96065.03;;;9.64;60.74
42847;BME280;28495;49.916;14.536;2023-03-25T08:20:23;96054.63;;;9.64;60.44
42847;BME280;28495;49.916;14.536;2023-03-25T08:25:45;96068.44;;;9.64;60.07
42847;BME280;28495;49.916;14.536;2023-03-25T08:31:09;96060.81;;;9.63;59.86
42847;BME280;28495;49.916;14.536;2023-03-25T08:36:31;96048.97;;;9.68;60.20
42847;BME280;28495;49.916;14.536;2023-03-25T08:41:52;96043.28;;;9.99;60.84
42847;BME280;28495;49.916;14.536;2023-03-25T08:47:12;96033.66;;;10.26;59.95
42847;BME280;28495;49.916;14.536;2023-03-25T08:52:33;96036.91;;;10.28;59.82
42847;BME280;28495;49.916;14.536;2023-03-25T08:57:54;96060.59;;;10.09;59.40
42847;BME280;28495;49.916;14.536;2023-03-25T09:03:15;96072.50;;;9.85;59.04
42847;BME280;28495;49.916;14.536;2023-03-25T09:08:36;96078.69;;;9.39;59.08
42847;BME280;28495;49.916;14.536;2023-03-25T09:13:56;96076.22;;;9.20;59.63
42847;BME280;28495;49.916;14.536;2023-03-25T09:19:17;96073.38;;;9.31;59.75
42847;BME280;28495;49.916;14.536;2023-03-25T09:24:38;96073.84;;;9.44;59.68
42847;BME280;28495;49.916;14.536;2023-03-25T09:29:58;96080.75;;;9.54;59.84
42847;BME280;28495;49.916;14.536;2023-03-25T09:35:19;96100.44;;;9.74;60.00
42847;BME280;28495;49.916;14.536;2023-03-25T09:40:43;96076.84;;;10.02;60.03
42847;BME280;28495;49.916;14.536;2023-03-25T09:46:04;96079.00;;;10.07;59.30
42847;BME280;28495;49.916;14.536;2023-03-25T09:51:31;96090.00;;;10.01;58.68
42847;BME280;28495;49.916;14.536;2023-03-25T09:56:58;96071.00;;;10.09;58.83
42847;BME280;28495;49.916;14.536;2023-03-25T10:08:12;96063.56;;;10.40;58.68
42847;BME280;28495;49.916;14.536;2023-03-25T10:14:12;96052.66;;;10.53;57.95
42847;BME280;28495;49.916;14.536;2023-03-25T10:19:46;96056.34;;;10.77;58.33
42847;BME280;28495;49.916;14.536;2023-03-25T10:25:17;96045.06;;;10.68;57.12
42847;BME280;28495;49.916;14.536;2023-03-25T10:30:44;96044.03;;;10.52;57.62
42847;BME280;28495;49.916;14.536;2023-03-25T10:36:13;96052.16;;;10.41;57.31
42847;BME280;28495;49.916;14.536;2023-03-25T10:41:38;96057.97;;;10.09;57.75
42847;BME280;28495;49.916;14.536;2023-03-25T10:47:10;96049.66;;;10.05;58.27
42847;BME280;28495;49.916;14.536;2023-03-25T10:52:33;96044.16;;;10.08;57.85
42847;BME280;28495;49.916;14.536;2023-03-25T10:57:55;96033.56;;;10.10;57.64
42847;BME280;28495;49.916;14.536;2023-03-25T11:03:20;96034.72;;;10.15;57.76
42847;BME280;28495;49.916;14.536;2023-03-25T11:14:26;96020.59;;;10.61;58.56
42847;BME280;28495;49.916;14.536;2023-03-25T11:19:59;96016.03;;;10.63;57.93
42847;BME280;28495;49.916;14.536;2023-03-25T11:25:29;96002.06;;;10.80;58.51
42847;BME280;28495;49.916;14.536;2023-03-25T11:31:08;95977.47;;;11.08;58.06
42847;BME280;28495;49.916;14.536;2023-03-25T11:36:32;95976.97;;;11.21;57.55
42847;BME280;28495;49.916;14.536;2023-03-25T11:41:55;95982.03;;;11.14;56.98
42847;BME280;28495;49.916;14.536;2023-03-25T11:47:25;95988.03;;;10.90;56.40
42847;BME280;28495;49.916;14.536;2023-03-25T11:52:47;95986.56;;;10.71;56.93
42847;BME280;28495;49.916;14.536;2023-03-25T11:58:35;95972.06;;;10.93;56.94
42847;BME280;28495;49.916;14.536;2023-03-25T12:04:24;95967.19;;;11.23;56.69
42847;BME280;28495;49.916;14.536;2023-03-25T12:09:53;95970.78;;;11.22;55.97
42847;BME280;28495;49.916;14.536;2023-03-25T12:15:34;95963.94;;;11.04;55.82
42847;BME280;28495;49.916;14.536;2023-03-25T12:21:23;95972.41;;;10.98;55.52
42847;BME280;28495;49.916;14.536;2023-03-25T12:43:56;95933.09;;;11.33;54.37
42847;BME280;28495;49.916;14.536;2023-03-25T12:55:19;95921.66;;;11.34;54.40
42847;BME280;28495;49.916;14.536;2023-03-25T13:17:45;95886.59;;;12.24;53.88
42847;BME280;28495;49.916;14.536;2023-03-25T13:23:11;95889.84;;;12.26;52.69
42847;BME280;28495;49.916;14.536;2023-03-25T13:28:40;95891.28;;;11.97;52.45
42847;BME280;28495;49.916;14.536;2023-03-25T13:40:06;95877.47;;;11.80;52.30
42847;BME280;28495;49.916;14.536;2023-03-25T13:46:00;95873.16;;;11.96;52.30
42847;BME280;28495;49.916;14.536;2023-03-25T13:51:22;95857.44;;;12.12;51.84
42847;BME280;28495;49.916;14.536;2023-03-25T14:08:18;95872.94;;;12.14;51.35
42847;BME280;28495;49.916;14.536;2023-03-25T14:13:56;95855.63;;;12.13;51.34
42847;BME280;28495;49.916;14.536;2023-03-25T14:19:29;95866.56;;;12.16;51.29
42847;BME280;28495;49.916;14.536;2023-03-25T14:24:51;95871.72;;;12.25;51.15
42847;BME280;28495;49.916;14.536;2023-03-25T14:30:21;95882.56;;;12.13;50.83
42847;BME280;28495;49.916;14.536;2023-03-25T14:35:45;95875.63;;;11.89;50.85
42847;BME280;28495;49.916;14.536;2023-03-25T14:41:07;95909.16;;;11.77;50.98
42847;BME280;28495;49.916;14.536;2023-03-25T14:46:34;95963.63;;;11.32;50.98
42847;BME280;28495;49.916;14.536;2023-03-25T14:51:56;95974.81;;;10.58;51.75
42847;BME280;28495;49.916;14.536;2023-03-25T14:57:24;95987.53;;;9.84;53.07
42847;BME280;28495;49.916;14.536;2023-03-25T15:02:50;95994.28;;;9.42;54.93
42847;BME280;28495;49.916;14.536;2023-03-25T15:08:14;95999.84;;;9.03;55.67
42847;BME280;28495;49.916;14.536;2023-03-25T15:13:45;95994.09;;;8.81;56.13
42847;BME280;28495;49.916;14.536;2023-03-25T15:19:17;95978.16;;;8.76;56.90
42847;BME280;28495;49.916;14.536;2023-03-25T15:24:39;95964.47;;;8.74;57.32
42847;BME280;28495;49.916;14.536;2023-03-25T15:30:24;95963.88;;;8.80;57.99
42847;BME280;28495;49.916;14.536;2023-03-25T15:36:12;95956.91;;;8.80;58.11
42847;BME280;28495;49.916;14.536;2023-03-25T15:59:05;95974.88;;;8.92;58.39
42847;BME280;28495;49.916;14.536;2023-03-25T16:09:54;95984.81;;;8.96;57.79
42847;BME280;28495;49.916;14.536;2023-03-25T16:15:17;95997.59;;;8.90;58.22
42847;BME280;28495;49.916;14.536;2023-03-25T16:20:44;95997.66;;;8.80;57.63
42847;BME280;28495;49.916;14.536;2023-03-25T16:26:05;95998.50;;;8.80;58.22
42847;BME280;28495;49.916;14.536;2023-03-25T16:31:29;96010.31;;;8.93;58.36
42847;BME280;28495;49.916;14.536;2023-03-25T16:37:00;96016.97;;;8.95;58.16
42847;BME280;28495;49.916;14.536;2023-03-25T16:42:28;96019.06;;;8.92;58.15
42847;BME280;28495;49.916;14.536;2023-03-25T16:47:52;96012.47;;;8.97;58.43
42847;BME280;28495;49.916;14.536;2023-03-25T16:53:15;96020.03;;;8.91;58.41
42847;BME280;28495;49.916;14.536;2023-03-25T16:58:54;96017.88;;;8.86;58.51
42847;BME280;28495;49.916;14.536;2023-03-25T17:04:19;96017.81;;;8.96;59.03
42847;BME280;28495;49.916;14.536;2023-03-25T17:09:42;96024.44;;;8.90;58.80
42847;BME280;28495;49.916;14.536;2023-03-25T17:15:05;96016.31;;;8.93;58.85
42847;BME280;28495;49.916;14.536;2023-03-25T17:20:42;96020.25;;;8.97;58.88
42847;BME280;28495;49.916;14.536;2023-03-25T17:26:17;96023.97;;;8.95;58.79
42847;BME280;28495;49.916;14.536;2023-03-25T17:31:41;96011.28;;;8.92;59.05
42847;BME280;28495;49.916;14.536;2023-03-25T17:37:02;96023.25;;;8.84;58.88
42847;BME280;28495;49.916;14.536;2023-03-25T17:42:24;96026.41;;;8.78;59.09
42847;BME280;28495;49.916;14.536;2023-03-25T17:47:45;96034.56;;;8.65;58.96
42847;BME280;28495;49.916;14.536;2023-03-25T17:53:06;96025.97;;;8.65;59.02
42847;BME280;28495;49.916;14.536;2023-03-25T17:58:27;96047.19;;;8.60;59.15
42847;BME280;28495;49.916;14.536;2023-03-25T18:03:49;96047.47;;;8.57;59.32
42847;BME280;28495;49.916;14.536;2023-03-25T18:09:21;96050.81;;;8.49;59.37
42847;BME280;28495;49.916;14.536;2023-03-25T18:14:42;96068.22;;;8.39;59.36
42847;BME280;28495;49.916;14.536;2023-03-25T18:20:26;96060.53;;;8.37;59.47
42847;BME280;28495;49.916;14.536;2023-03-25T18:25:48;96061.16;;;8.21;59.54
42847;BME280;28495;49.916;14.536;2023-03-25T18:31:11;96063.44;;;8.24;59.28
42847;BME280;28495;49.916;14.536;2023-03-25T18:36:40;96061.28;;;8.20;59.50
42847;BME280;28495;49.916;14.536;2023-03-25T18:42:01;96055.16;;;8.11;59.60
42847;BME280;28495;49.916;14.536;2023-03-25T18:47:22;96058.59;;;8.12;59.53
42847;BME280;28495;49.916;14.536;2023-03-25T18:52:43;96056.44;;;8.07;59.71
42847;BME280;28495;49.916;14.536;2023-03-25T18:58:05;96055.75;;;8.05;59.62
42847;BME280;28495;49.916;14.536;2023-03-25T19:03:27;96057.94;;;8.00;59.74
42847;BME280;28495;49.916;14.536;2023-03-25T19:08:58;96065.88;;;8.08;59.86
42847;BME280;28495;49.916;14.536;2023-03-25T19:14:20;96068.06;;;8.03;59.55
42847;BME280;28495;49.916;14.536;2023-03-25T19:19:41;96060.28;;;7.93;59.42
42847;BME280;28495;49.916;14.536;2023-03-25T19:25:02;96068.78;;;7.85;59.67
42847;BME280;28495;49.916;14.536;2023-03-25T19:30:23;96075.09;;;7.83;59.74
42847;BME280;28495;49.916;14.536;2023-03-25T19:35:51;96077.41;;;7.76;59.77
42847;BME280;28495;49.916;14.536;2023-03-25T19:41:14;96064.81;;;7.91;60.12
42847;BME280;28495;49.916;14.536;2023-03-25T19:46:36;96082.28;;;7.99;59.88
42847;BME280;28495;49.916;14.536;2023-03-25T19:51:57;96069.16;;;8.00;59.62
42847;BME280;28495;49.916;14.536;2023-03-25T19:57:18;96071.22;;;7.97;59.60
42847;BME280;28495;49.916;14.536;2023-03-25T20:02:45;96068.75;;;7.95;59.72
42847;BME280;28495;49.916;14.536;2023-03-25T20:08:07;96074.63;;;7.97;59.76
42847;BME280;28495;49.916;14.536;2023-03-25T20:13:28;96063.56;;;7.95;59.60
42847;BME280;28495;49.916;14.536;2023-03-25T20:18:50;96059.47;;;7.92;59.60
42847;BME280;28495;49.916;14.536;2023-03-25T20:24:11;96057.34;;;7.78;59.63
42847;BME280;28495;49.916;14.536;2023-03-25T20:29:31;96068.34;;;7.90;60.02
42847;BME280;28495;49.916;14.536;2023-03-25T20:34:52;96075.09;;;7.83;59.76
42847;BME280;28495;49.916;14.536;2023-03-25T20:40:15;96071.53;;;7.84;59.80
42847;BME280;28495;49.916;14.536;2023-03-25T20:45:36;96077.78;;;7.91;59.65
42847;BME280;28495;49.916;14.536;2023-03-25T20:50:59;96072.75;;;7.80;59.54
42847;BME280;28495;49.916;14.536;2023-03-25T20:56:20;96076.22;;;7.60;59.67
42847;BME280;28495;49.916;14.536;2023-03-25T21:01:41;96065.13;;;7.68;60.15
42847;BME280;28495;49.916;14.536;2023-03-25T21:07:02;96062.94;;;7.73;60.37
42847;BME280;28495;49.916;14.536;2023-03-25T21:12:23;96064.03;;;7.81;60.42
42847;BME280;28495;49.916;14.536;2023-03-25T21:18:02;96067.28;;;7.83;60.28
42847;BME280;28495;49.916;14.536;2023-03-25T21:23:24;96059.25;;;7.76;60.30
42847;BME280;28495;49.916;14.536;2023-03-25T21:28:48;96065.94;;;7.69;60.17
42847;BME280;28495;49.916;14.536;2023-03-25T21:34:09;96059.00;;;7.59;60.11
42847;BME280;28495;49.916;14.536;2023-03-25T21:39:30;96056.41;;;7.59;60.59
42847;BME280;28495;49.916;14.536;2023-03-25T21:44:52;96049.16;;;7.63;60.55
42847;BME280;28495;49.916;14.536;2023-03-25T21:50:13;96057.91;;;7.62;60.75
42847;BME280;28495;49.916;14.536;2023-03-25T21:55:35;96057.78;;;7.54;60.52
42847;BME280;28495;49.916;14.536;2023-03-25T22:01:00;96057.91;;;7.52;60.51
42847;BME280;28495;49.916;14.536;2023-03-25T22:06:24;96048.63;;;7.50;60.54
42847;BME280;28495;49.916;14.536;2023-03-25T22:11:45;96044.41;;;7.58;60.52
42847;BME280;28495;49.916;14.536;2023-03-25T22:17:06;96030.59;;;7.58;60.88
42847;BME280;28495;49.916;14.536;2023-03-25T22:22:27;96020.22;;;7.58;60.45
42847;BME280;28495;49.916;14.536;2023-03-25T22:27:49;96021.84;;;7.59;60.71
42847;BME280;28495;49.916;14.536;2023-03-25T22:33:10;96012.56;;;7.56;60.71
42847;BME280;28495;49.916;14.536;2023-03-25T22:38:32;96009.72;;;7.59;60.38
42847;BME280;28495;49.916;14.536;2023-03-25T22:43:53;96013.81;;;7.52;60.49
42847;BME280;28495;49.916;14.536;2023-03-25T22:49:16;96010.81;;;7.47;60.47
42847;BME280;28495;49.916;14.536;2023-03-25T22:54:36;96009.19;;;7.46;60.51
42847;BME280;28495;49.916;14.536;2023-03-25T22:59:57;96022.16;;;7.46;60.62
42847;BME280;28495;49.916;14.536;2023-03-25T23:05:18;96006.03;;;7.42;60.43
42847;BME280;28495;49.916;14.536;2023-03-25T23:10:42;95997.44;;;7.42;60.61
42847;BME280;28495;49.916;14.536;2023-03-25T23:16:12;95999.09;;;7.43;60.65
42847;BME280;28495;49.916;14.536;2023-03-25T23:21:33;95992.94;;;7.44;60.71
42847;BME280;28495;49.916;14.536;2023-03-25T23:26:54;96010.16;;;7.45;60.37
42847;BME280;28495;49.916;14.536;2023-03-25T23:32:15;95998.25;;;7.52;60.59
42847;BME280;28495;49.916;14.536;2023-03-25T23:37:36;96005.91;;;7.54;60.17
42847;BME280;28495;49.916;14.536;2023-03-25T23:42:56;96005.75;;;7.55;60.03
42847;BME280;28495;49.916;14.536;2023-03-25T23:48:17;96018.28;;;7.60;60.20
42847;BME280;28495;49.916;14.536;2023-03-25T23:53:39;96022.53;;;7.61;60.04
42847;BME280;28495;49.916;14.536;2023-03-25T23:59:03;96025.97;;;7.61;59.97
